createdAt,value
2018-10-18T00:01:33.503Z,101105.59
2018-10-18T00:03:58.951Z,101104.20
2018-10-18T00:09:01.341Z,101093.23
2018-10-18T00:14:03.510Z,101087.17
2018-10-18T00:16:28.948Z,101082.30
2018-10-18T00:18:54.656Z,101078.52
2018-10-18T00:21:20.113Z,101080.84
2018-10-18T00:23:56.882Z,101079.89
2018-10-18T00:26:41.270Z,101077.16
2018-10-18T00:29:06.864Z,101082.33
2018-10-18T00:34:03.554Z,101073.86
2018-10-18T00:36:29.004Z,101071.87
2018-10-18T00:38:54.401Z,101084.14
2018-10-18T00:41:19.860Z,101083.75
2018-10-18T00:43:45.273Z,101087.41
2018-10-18T00:46:10.694Z,101083.78
2018-10-18T00:48:36.115Z,101089.31
2018-10-18T00:51:01.570Z,101091.02
2018-10-18T00:53:27.039Z,101084.05
2018-10-18T00:55:52.506Z,101094.22
2018-10-18T00:58:36.894Z,101094.51
2018-10-18T01:01:02.390Z,101095.91
2018-10-18T01:03:27.883Z,101093.93
2018-10-18T01:05:53.331Z,101092.19
2018-10-18T01:08:18.766Z,101091.28
2018-10-18T01:10:44.180Z,101091.93
2018-10-18T01:13:09.647Z,101095.16
2018-10-18T01:15:35.082Z,101093.69
2018-10-18T01:18:00.603Z,101088.66
2018-10-18T01:20:25.987Z,101090.25
2018-10-18T01:25:34.764Z,101096.09
2018-10-18T01:28:00.152Z,101098.78
2018-10-18T01:33:15.848Z,101092.28
2018-10-18T01:35:32.764Z,101092.54
2018-10-18T01:37:58.321Z,101095.37
2018-10-18T01:40:23.900Z,101086.52
2018-10-18T01:42:49.296Z,101093.50
2018-10-18T01:53:14.580Z,101095.77
2018-10-18T01:55:31.665Z,101095.66
2018-10-18T01:57:57.089Z,101094.94
2018-10-18T02:00:22.493Z,101098.34
2018-10-18T02:02:47.904Z,101095.08
2018-10-18T02:05:27.033Z,101104.30
2018-10-18T02:10:22.129Z,101096.19
2018-10-18T02:12:47.536Z,101098.20
2018-10-18T02:15:27.031Z,101095.66
2018-10-18T02:17:44.689Z,101095.15
2018-10-18T02:20:10.861Z,101101.69
2018-10-18T02:22:36.285Z,101106.02
2018-10-18T02:27:32.657Z,101116.62
2018-10-18T02:29:58.093Z,101110.75
2018-10-18T02:32:23.474Z,101120.79
2018-10-18T02:34:48.881Z,101112.26
2018-10-18T02:37:14.287Z,101123.08
2018-10-18T02:42:16.484Z,101125.73
2018-10-18T02:45:00.798Z,101124.56
2018-10-18T02:47:26.316Z,101128.08
2018-10-18T02:49:51.782Z,101133.27
2018-10-18T02:52:29.055Z,101132.36
2018-10-18T02:57:25.959Z,101146.52
2018-10-18T03:02:27.302Z,101085.97
2018-10-18T03:04:52.823Z,101140.99
2018-10-18T03:07:18.523Z,101137.31
2018-10-18T03:09:43.923Z,101144.51
2018-10-18T03:12:09.364Z,101140.39
2018-10-18T03:14:34.800Z,101141.11
2018-10-18T03:17:11.813Z,101142.73
2018-10-18T03:22:07.171Z,101146.91
2018-10-18T03:24:44.149Z,101142.91
2018-10-18T03:27:03.957Z,101144.85
2018-10-18T03:29:29.437Z,101144.14
2018-10-18T03:31:54.867Z,101144.58
2018-10-18T03:34:31.700Z,101135.78
2018-10-18T03:36:57.103Z,101140.25
2018-10-18T03:39:22.565Z,101134.00
2018-10-18T03:42:07.025Z,101139.08
2018-10-18T03:44:32.457Z,101145.67
2018-10-18T03:49:35.558Z,101149.34
2018-10-18T03:52:01.030Z,101151.39
2018-10-18T03:54:26.517Z,101148.41
2018-10-18T03:56:51.944Z,101153.14
2018-10-18T03:59:17.383Z,101155.36
2018-10-18T04:01:42.892Z,101151.73
2018-10-18T04:04:08.352Z,101155.75
2018-10-18T04:06:33.783Z,101153.64
2018-10-18T04:08:59.254Z,101150.77
2018-10-18T04:11:36.346Z,101156.29
2018-10-18T04:14:02.107Z,101158.55
2018-10-18T04:16:27.524Z,101157.20
2018-10-18T04:18:53.006Z,101159.72
2018-10-18T04:21:18.427Z,101160.22
2018-10-18T04:23:43.826Z,101166.66
2018-10-18T04:26:09.244Z,101169.47
2018-10-18T04:28:35.158Z,101162.82
2018-10-18T04:33:38.658Z,101159.30
2018-10-18T04:41:28.304Z,101171.97
2018-10-18T04:44:08.094Z,101173.80
2018-10-18T04:46:25.835Z,101172.10
2018-10-18T04:48:51.335Z,101174.34
2018-10-18T04:51:16.772Z,101185.22
2018-10-18T04:58:55.319Z,101196.31
2018-10-18T05:01:20.970Z,101197.45
2018-10-18T05:03:46.167Z,101195.64
2018-10-18T05:06:11.610Z,101200.45
2018-10-18T05:08:37.046Z,101192.09
2018-10-18T05:11:02.462Z,101202.25
2018-10-18T05:13:27.995Z,101160.45
2018-10-18T05:15:53.420Z,101201.94
2018-10-18T05:18:19.140Z,101204.64
2018-10-18T05:20:44.594Z,101200.64
2018-10-18T05:23:10.290Z,101204.28
2018-10-18T05:25:35.835Z,101199.28
2018-10-18T05:28:01.154Z,101209.92
2018-10-18T05:30:26.586Z,101210.12
2018-10-18T05:32:52.002Z,101215.12
2018-10-18T05:35:17.453Z,101213.63
2018-10-18T05:37:42.885Z,101215.70
2018-10-18T05:40:08.275Z,101220.04
2018-10-18T05:42:45.157Z,101218.15
2018-10-18T05:45:17.575Z,101220.19
2018-10-18T05:47:37.389Z,101220.72
2018-10-18T05:50:02.814Z,101227.08
2018-10-18T05:52:28.239Z,101229.38
2018-10-18T05:54:53.712Z,101232.95
2018-10-18T05:57:19.110Z,101233.95
2018-10-18T05:59:44.575Z,101237.69
2018-10-18T06:02:10.011Z,101240.66
2018-10-18T06:04:35.415Z,101241.57
2018-10-18T06:07:00.955Z,101247.08
2018-10-18T06:09:45.393Z,101247.07
2018-10-18T06:12:10.814Z,101250.36
2018-10-18T06:14:36.209Z,101243.61
2018-10-18T06:17:01.645Z,101243.19
2018-10-18T06:19:27.115Z,101247.72
2018-10-18T06:21:52.556Z,101247.07
2018-10-18T06:24:17.956Z,101247.84
2018-10-18T06:26:43.374Z,101254.81
2018-10-18T06:29:08.791Z,101248.59
2018-10-18T06:31:34.212Z,101247.78
2018-10-18T06:33:59.633Z,101251.77
2018-10-18T06:36:25.068Z,101257.34
2018-10-18T06:39:02.118Z,101257.91
2018-10-18T06:41:21.417Z,101255.42
2018-10-18T06:43:47.550Z,101254.86
2018-10-18T06:46:14.128Z,101259.16
2018-10-18T06:48:39.528Z,101258.95
2018-10-18T06:51:04.935Z,101262.31
2018-10-18T06:53:30.409Z,101262.55
2018-10-18T06:58:32.845Z,101278.67
2018-10-18T07:00:58.247Z,101279.57
2018-10-18T07:03:23.649Z,101279.90
2018-10-18T07:08:20.554Z,101286.97
2018-10-18T07:13:22.574Z,101285.78
2018-10-18T07:18:24.605Z,101291.88
2018-10-18T07:20:50.018Z,101292.49
2018-10-18T07:23:15.439Z,101292.87
2018-10-18T07:25:40.883Z,101285.11
2018-10-18T07:28:06.345Z,101288.11
2018-10-18T07:33:03.586Z,101288.03
2018-10-18T07:35:29.009Z,101283.68
2018-10-18T07:37:54.419Z,101294.51
2018-10-18T07:40:19.823Z,101296.66
2018-10-18T07:42:45.373Z,101302.23
2018-10-18T07:45:11.566Z,101299.07
2018-10-18T07:47:36.979Z,101306.08
2018-10-18T07:50:02.400Z,101307.08
2018-10-18T07:52:27.858Z,101306.33
2018-10-18T07:54:53.292Z,101315.20
2018-10-18T07:59:50.467Z,101311.75
2018-10-18T08:02:15.874Z,101314.45
2018-10-18T08:07:05.345Z,101317.51
2018-10-18T08:09:30.690Z,101324.08
2018-10-18T08:11:56.098Z,101327.27
2018-10-18T08:14:21.534Z,101328.95
2018-10-18T08:16:47.076Z,101324.84
2018-10-18T08:19:24.068Z,101334.64
2018-10-18T08:21:43.480Z,101334.38
2018-10-18T08:26:45.059Z,101326.32
2018-10-18T08:29:10.529Z,101330.74
2018-10-18T08:31:36.070Z,101334.20
2018-10-18T08:34:01.449Z,101327.93
2018-10-18T08:36:26.875Z,101332.14
2018-10-18T08:38:52.291Z,101327.70
2018-10-18T08:41:17.839Z,101325.09
2018-10-18T08:43:43.332Z,101327.84
2018-10-18T08:46:08.722Z,101328.72
2018-10-18T08:48:34.164Z,101326.09
2018-10-18T08:53:48.131Z,101332.17
2018-10-18T08:56:27.328Z,101328.22
2018-10-18T08:58:45.334Z,101332.52
2018-10-18T09:01:10.877Z,101334.87
2018-10-18T09:06:27.334Z,101336.06
2018-10-18T09:08:44.762Z,101334.41
2018-10-18T09:11:10.181Z,101335.30
2018-10-18T09:13:35.614Z,101341.09
2018-10-18T09:16:01.156Z,101258.88
2018-10-18T09:18:26.471Z,101335.34
2018-10-18T09:23:29.002Z,101340.40
2018-10-18T09:25:54.550Z,101346.11
2018-10-18T09:28:20.145Z,101338.55
2018-10-18T09:30:45.688Z,101332.84
2018-10-18T09:33:24.909Z,101327.22
2018-10-18T09:35:42.941Z,101330.91
2018-10-18T09:38:08.753Z,101329.41
2018-10-18T09:40:34.215Z,101338.32
2018-10-18T09:45:36.560Z,101332.70
2018-10-18T09:48:02.012Z,101331.22
2018-10-18T09:50:27.450Z,101330.57
2018-10-18T09:52:52.960Z,101328.06
2018-10-18T09:55:30.164Z,101284.87
2018-10-18T09:57:49.286Z,101333.97
2018-10-18T10:00:33.482Z,101323.25
2018-10-18T10:05:38.157Z,101326.14
2018-10-18T10:08:03.608Z,101334.70
2018-10-18T10:10:29.103Z,101341.25
2018-10-18T10:12:54.589Z,101341.58
2018-10-18T10:15:19.984Z,101347.08
2018-10-18T10:20:17.110Z,101351.91
2018-10-18T10:22:42.532Z,101347.50
2018-10-18T10:25:08.020Z,101349.11
2018-10-18T10:27:45.269Z,101347.36
2018-10-18T10:30:16.077Z,101353.33
2018-10-18T10:32:35.953Z,101356.41
2018-10-18T10:35:01.430Z,101362.68
2018-10-18T10:37:26.853Z,101358.95
2018-10-18T10:39:52.320Z,101355.19
2018-10-18T10:42:25.106Z,101361.75
2018-10-18T10:44:50.691Z,101358.53
2018-10-18T10:47:16.042Z,101366.59
2018-10-18T10:49:53.150Z,101362.82
2018-10-18T10:52:12.755Z,101370.84
2018-10-18T10:54:59.766Z,101372.74
2018-10-18T10:57:36.808Z,101367.65
2018-10-18T10:59:56.691Z,101362.13
2018-10-18T11:02:22.123Z,101356.95
2018-10-18T11:04:47.575Z,101364.73
2018-10-18T11:07:32.038Z,101369.67
2018-10-18T11:09:57.502Z,101367.95
2018-10-18T11:12:23.032Z,101363.45
2018-10-18T11:15:00.313Z,101365.86
2018-10-18T11:17:19.490Z,101367.05
2018-10-18T11:19:44.917Z,101367.30
2018-10-18T11:24:42.323Z,101361.72
2018-10-18T11:27:07.941Z,101357.64
2018-10-18T11:29:33.219Z,101356.83
2018-10-18T11:32:10.664Z,101361.65
2018-10-18T11:34:36.038Z,101366.75
2018-10-18T11:37:01.424Z,101369.58
2018-10-18T11:39:26.921Z,101369.84
2018-10-18T11:41:52.363Z,101366.09
2018-10-18T11:44:48.230Z,101366.47
2018-10-18T11:49:50.738Z,101367.66
2018-10-18T11:52:16.172Z,101358.64
2018-10-18T11:54:41.648Z,101359.92
2018-10-18T11:57:07.222Z,101362.20
2018-10-18T11:59:32.743Z,101359.87
2018-10-18T12:01:58.238Z,101363.57
2018-10-18T12:04:23.626Z,101360.48
2018-10-18T12:06:49.070Z,101355.51
2018-10-18T12:09:14.577Z,101350.73
2018-10-18T12:11:40.130Z,101358.97
2018-10-18T12:14:05.887Z,101350.66
2018-10-18T12:16:31.265Z,101358.45
2018-10-18T12:18:56.742Z,101355.56
2018-10-18T12:21:22.184Z,101355.81
2018-10-18T12:29:00.796Z,101356.59
2018-10-18T12:31:26.184Z,101354.85
2018-10-18T12:33:51.624Z,101354.05
2018-10-18T12:36:31.369Z,101363.13
2018-10-18T12:38:49.581Z,101367.34
2018-10-18T12:41:15.180Z,101371.38
2018-10-18T12:43:40.446Z,101372.67
2018-10-18T12:46:06.157Z,101371.55
2018-10-18T12:51:08.455Z,101370.49
2018-10-18T12:54:07.642Z,101375.80
2018-10-18T13:01:38.445Z,101371.88
2018-10-18T13:06:41.437Z,101375.20
2018-10-18T13:09:10.207Z,101366.91
2018-10-18T13:16:43.054Z,101369.69
2018-10-18T13:19:08.843Z,101372.02
2018-10-18T13:21:40.364Z,101366.63
2018-10-18T13:24:05.918Z,101369.82
2018-10-18T13:26:31.299Z,101370.45
2018-10-18T13:28:56.713Z,101365.55
2018-10-18T13:31:22.165Z,101367.52
2018-10-18T13:33:47.676Z,101378.47
2018-10-18T13:36:13.128Z,101375.35
2018-10-18T13:38:38.521Z,101332.92
2018-10-18T13:41:03.943Z,101367.80
2018-10-18T13:43:29.395Z,101367.88
2018-10-18T13:45:54.825Z,101363.43
2018-10-18T13:48:20.281Z,101362.37
2018-10-18T13:50:45.744Z,101361.78
2018-10-18T13:53:30.168Z,101348.83
2018-10-18T13:56:07.358Z,101362.02
2018-10-18T14:01:09.290Z,101364.05
2018-10-18T14:03:46.741Z,101366.53
2018-10-18T14:06:12.232Z,101364.12
2018-10-18T14:11:18.236Z,101362.06
2018-10-18T14:16:20.329Z,101368.72
2018-10-18T14:21:23.394Z,101372.00
2018-10-18T14:23:48.849Z,101362.03
2018-10-18T14:26:14.366Z,101361.42
2018-10-18T14:31:16.656Z,101366.73
2018-10-18T14:33:42.105Z,101368.72
2018-10-18T14:36:08.343Z,101376.60
2018-10-18T14:38:33.788Z,101372.13
2018-10-18T14:40:59.275Z,101369.50
2018-10-18T14:43:24.705Z,101372.67
2018-10-18T14:46:09.134Z,101366.59
2018-10-18T14:51:05.935Z,101383.41
2018-10-18T14:53:43.418Z,101382.80
2018-10-18T14:56:22.436Z,101374.11
2018-10-18T14:58:40.595Z,101374.11
2018-10-18T15:01:06.175Z,101385.19
2018-10-18T15:06:08.686Z,101381.58
2018-10-18T15:08:34.280Z,101385.87
2018-10-18T15:10:59.656Z,101384.70
2018-10-18T15:13:25.087Z,101382.95
2018-10-18T15:15:50.564Z,101389.81
2018-10-18T15:18:16.022Z,101388.20
2018-10-18T15:20:41.547Z,101388.78
2018-10-18T15:23:07.035Z,101391.87
2018-10-18T15:25:32.651Z,101396.72
2018-10-18T15:27:58.013Z,101399.94
2018-10-18T15:30:23.543Z,101401.69
2018-10-18T15:32:49.051Z,101401.58
2018-10-18T15:35:14.532Z,101403.52
2018-10-18T15:37:40.174Z,101399.77
2018-10-18T15:40:05.876Z,101403.73
2018-10-18T15:45:13.785Z,101409.93
2018-10-18T15:47:50.978Z,101409.44
2018-10-18T15:50:11.646Z,101415.69
2018-10-18T15:52:49.076Z,101415.81
2018-10-18T15:55:08.517Z,101419.86
2018-10-18T15:57:34.021Z,101423.94
2018-10-18T15:59:59.487Z,101422.50
2018-10-18T16:02:24.943Z,101422.65
2018-10-18T16:05:01.902Z,101420.81
2018-10-18T16:09:54.132Z,101435.22
2018-10-18T16:12:19.612Z,101440.49
2018-10-18T16:14:45.163Z,101445.48
2018-10-18T16:19:42.574Z,101449.41
2018-10-18T16:22:08.037Z,101452.55
2018-10-18T16:24:33.847Z,101453.19
2018-10-18T16:27:05.143Z,101461.92
2018-10-18T16:29:30.579Z,101460.06
2018-10-18T16:31:56.404Z,101463.77
2018-10-18T16:34:21.822Z,101470.98
2018-10-18T16:36:47.272Z,101472.56
2018-10-18T16:39:14.074Z,101473.14
2018-10-18T16:41:39.828Z,101480.00
2018-10-18T16:44:05.236Z,101483.02
2018-10-18T16:46:42.269Z,101488.61
2018-10-18T16:49:07.995Z,101498.45
2018-10-18T16:51:33.462Z,101499.28
2018-10-18T16:53:58.927Z,101498.02
2018-10-18T16:56:24.325Z,101505.83
2018-10-18T16:58:49.775Z,101507.94
2018-10-18T17:01:15.253Z,101514.66
2018-10-18T17:06:31.468Z,101524.58
2018-10-18T17:08:48.857Z,101519.53
2018-10-18T17:11:25.884Z,101511.13
2018-10-18T17:13:45.626Z,101512.15
2018-10-18T17:16:22.607Z,101514.83
2018-10-18T17:21:14.226Z,101515.36
2018-10-18T17:23:39.725Z,101513.74
2018-10-18T17:26:05.115Z,101514.89
2018-10-18T17:28:30.546Z,101513.64
2018-10-18T17:30:56.021Z,101516.69
2018-10-18T17:33:21.600Z,101521.80
2018-10-18T17:35:47.043Z,101525.27
2018-10-18T17:38:12.535Z,101526.97
2018-10-18T17:40:38.031Z,101537.67
2018-10-18T17:43:03.509Z,101541.41
2018-10-18T17:45:28.960Z,101542.06
2018-10-18T17:47:54.459Z,101544.16
2018-10-18T17:50:20.654Z,101546.79
2018-10-18T17:52:46.118Z,101547.70
2018-10-18T17:55:11.565Z,101553.28
2018-10-18T17:57:37.329Z,101554.56
2018-10-18T18:02:50.954Z,101557.02
2018-10-18T18:07:48.012Z,101551.27
2018-10-18T18:10:32.274Z,101552.91
2018-10-18T18:12:57.794Z,101556.84
2018-10-18T18:15:23.313Z,101565.45
2018-10-18T18:20:38.691Z,101572.56
2018-10-18T18:22:56.555Z,101571.94
2018-10-18T18:25:22.029Z,101575.87
2018-10-18T18:27:58.952Z,101579.41
2018-10-18T18:30:24.429Z,101580.53
2018-10-18T18:32:49.874Z,101585.97
2018-10-18T18:35:15.324Z,101582.93
2018-10-18T18:37:40.830Z,101588.22
2018-10-18T18:40:06.957Z,101596.01
2018-10-18T18:42:44.113Z,101599.78
2018-10-18T18:45:22.943Z,101601.82
2018-10-18T18:47:48.296Z,101599.95
2018-10-18T18:50:13.819Z,101603.52
2018-10-18T18:52:39.275Z,101606.50
2018-10-18T18:55:04.736Z,101612.26
2018-10-18T18:57:30.182Z,101613.13
2018-10-18T19:00:07.546Z,101612.35
2018-10-18T19:02:27.462Z,101622.84
2018-10-18T19:07:30.366Z,101626.72
2018-10-18T19:09:55.847Z,101632.74
2018-10-18T19:12:21.349Z,101635.46
2018-10-18T19:14:46.749Z,101639.64
2018-10-18T19:17:12.212Z,101644.13
2018-10-18T19:19:38.533Z,101641.97
2018-10-18T19:22:04.017Z,101635.46
2018-10-18T19:24:29.488Z,101640.74
2018-10-18T19:27:06.755Z,101645.98
2018-10-18T19:31:58.492Z,101648.61
2018-10-18T19:34:23.796Z,101653.18
2018-10-18T19:36:49.234Z,101651.98
2018-10-18T19:39:14.717Z,101647.02
2018-10-18T19:41:40.174Z,101657.48
2018-10-18T19:44:05.720Z,101652.11
2018-10-18T19:46:31.165Z,101652.61
2018-10-18T19:48:56.624Z,101652.41
2018-10-18T19:51:22.036Z,101652.41
2018-10-18T19:53:47.497Z,101653.41
2018-10-18T19:56:26.755Z,101649.94
2018-10-18T19:58:44.554Z,101654.00
2018-10-18T20:01:09.918Z,101651.23
2018-10-18T20:03:35.443Z,101655.98
2018-10-18T20:06:00.852Z,101661.80
2018-10-18T20:08:26.354Z,101663.95
2018-10-18T20:10:54.186Z,101671.07
2018-10-18T20:13:19.642Z,101673.23
2018-10-18T20:15:45.069Z,101669.62
2018-10-18T20:18:24.136Z,101673.19
2018-10-18T20:20:53.111Z,101674.17
2018-10-18T20:23:18.592Z,101668.97
2018-10-18T20:28:19.956Z,101671.06
2018-10-18T20:30:45.368Z,101669.86
2018-10-18T20:33:10.821Z,101678.44
2018-10-18T20:35:36.287Z,101679.94
2018-10-18T20:40:38.651Z,101679.52
2018-10-18T20:43:04.075Z,101678.42
2018-10-18T20:45:48.284Z,101680.87
2018-10-18T20:51:04.628Z,101687.84
2018-10-18T20:53:22.497Z,101685.45
2018-10-18T20:55:47.926Z,101688.72
2018-10-18T20:58:13.355Z,101689.73
2018-10-18T21:00:38.764Z,101686.70
2018-10-18T21:03:04.241Z,101679.04
2018-10-18T21:05:41.129Z,101677.61
2018-10-18T21:08:00.975Z,101687.04
2018-10-18T21:10:26.399Z,101688.36
2018-10-18T21:12:51.835Z,101690.33
2018-10-18T21:15:17.351Z,101686.67
2018-10-18T21:17:42.654Z,101687.74
2018-10-18T21:20:08.218Z,101685.88
2018-10-18T21:22:48.166Z,101688.17
2018-10-18T21:25:18.487Z,101690.20
2018-10-18T21:27:36.461Z,101690.28
2018-10-18T21:30:01.842Z,101688.09
2018-10-18T21:32:27.275Z,101681.91
2018-10-18T21:34:52.686Z,101686.91
2018-10-18T21:37:18.147Z,101689.05
2018-10-18T21:39:43.579Z,101685.44
2018-10-18T21:42:08.989Z,101690.23
2018-10-18T21:44:38.047Z,101689.20
2018-10-18T21:47:03.564Z,101690.77
2018-10-18T21:49:29.797Z,101696.70
2018-10-18T21:51:55.211Z,101695.88
2018-10-18T21:54:32.108Z,101692.70
2018-10-18T21:56:51.965Z,101695.25
2018-10-18T21:59:17.409Z,101699.80
2018-10-18T22:01:42.859Z,101709.01
2018-10-18T22:06:46.354Z,101708.77
2018-10-18T22:09:30.735Z,101701.72
2018-10-18T22:11:56.208Z,101703.23
2018-10-18T22:14:21.803Z,101700.80
2018-10-18T22:16:47.175Z,101701.03
2018-10-18T22:19:12.611Z,101703.70
2018-10-18T22:21:39.026Z,101699.09
2018-10-18T22:26:35.951Z,101705.77
2018-10-18T22:31:44.274Z,101705.30
2018-10-18T22:34:04.417Z,101710.91
2018-10-18T22:36:29.873Z,101702.88
2018-10-18T22:38:55.789Z,101712.09
2018-10-18T22:41:21.164Z,101709.75
2018-10-18T22:43:46.610Z,101709.74
2018-10-18T22:46:12.008Z,101709.86
2018-10-18T22:48:52.196Z,101706.52
2018-10-18T22:51:09.007Z,101707.69
2018-10-18T22:53:34.367Z,101703.45
2018-10-18T22:55:59.824Z,101706.45
2018-10-18T22:58:25.307Z,101709.84
2018-10-18T23:00:51.387Z,101708.28
2018-10-18T23:03:17.631Z,101710.50
2018-10-18T23:05:43.040Z,101710.41
2018-10-18T23:08:08.504Z,101709.02
2018-10-18T23:10:33.933Z,101702.88
2018-10-18T23:13:13.284Z,101709.38
2018-10-18T23:15:30.622Z,101702.16
2018-10-18T23:17:56.066Z,101698.64
2018-10-18T23:20:21.469Z,101703.16
2018-10-18T23:22:46.920Z,101704.35
2018-10-18T23:25:12.451Z,101704.35
2018-10-18T23:27:37.838Z,101705.44
2018-10-18T23:30:03.288Z,101707.27
2018-10-18T23:35:05.718Z,101709.18
2018-10-18T23:40:07.425Z,101708.55
2018-10-18T23:42:44.582Z,101705.66
2018-10-18T23:45:04.943Z,101704.13
2018-10-18T23:52:45.034Z,101712.87
2018-10-18T23:57:52.840Z,101703.75
